createdAt,value
2018-09-25T00:01:08.415Z,0.87
2018-09-25T00:06:17.654Z,1.33
2018-09-25T00:11:26.798Z,1.20
2018-09-25T00:16:35.920Z,1.20
2018-09-25T00:21:45.143Z,0.90
2018-09-25T00:26:54.162Z,1.47
2018-09-25T00:32:03.287Z,1.27
2018-09-25T00:37:12.348Z,1.30
2018-09-25T00:42:21.380Z,1.33
2018-09-25T00:47:30.335Z,1.43
2018-09-25T00:52:39.461Z,0.80
2018-09-25T00:57:48.540Z,0.90
2018-09-25T01:02:57.792Z,1.07
2018-09-25T01:08:06.931Z,1.20
2018-09-25T01:13:15.944Z,1.20
2018-09-25T01:18:25.092Z,1.20
2018-09-25T01:23:34.448Z,1.23
2018-09-25T01:28:43.703Z,1.40
2018-09-25T01:33:52.793Z,1.20
2018-09-25T01:39:02.084Z,1.60
2018-09-25T01:44:11.138Z,1.00
2018-09-25T01:49:20.175Z,0.90
2018-09-25T01:54:29.510Z,1.07
2018-09-25T01:59:38.595Z,1.20
2018-09-25T02:04:47.862Z,1.00
2018-09-25T02:09:57.152Z,1.87
2018-09-25T02:15:06.273Z,1.70
2018-09-25T02:20:15.339Z,0.90
2018-09-25T02:25:24.431Z,0.80
2018-09-25T02:30:33.761Z,1.00
2018-09-25T02:35:42.850Z,1.00
2018-09-25T02:40:52.188Z,0.93
2018-09-25T02:46:01.538Z,1.97
2018-09-25T02:51:10.736Z,1.00
2018-09-25T02:56:19.995Z,1.40
2018-09-25T03:01:29.082Z,1.00
2018-09-25T03:06:38.324Z,1.20
2018-09-25T03:11:47.656Z,1.10
2018-09-25T03:16:56.640Z,1.70
2018-09-25T03:22:05.696Z,1.00
2018-09-25T03:27:14.843Z,1.10
2018-09-25T03:32:23.947Z,0.83
2018-09-25T03:37:32.951Z,1.40
2018-09-25T03:42:42.042Z,1.60
2018-09-25T03:47:58.252Z,1.40
2018-09-25T03:53:07.398Z,1.27
2018-09-25T03:58:16.579Z,1.40
2018-09-25T04:03:25.884Z,1.50
2018-09-25T04:08:34.971Z,1.50
2018-09-25T04:13:44.035Z,1.10
2018-09-25T04:18:53.144Z,1.53
2018-09-25T04:24:02.402Z,1.20
2018-09-25T04:29:11.716Z,1.23
2018-09-25T04:34:20.828Z,1.43
2018-09-25T04:39:29.869Z,1.27
2018-09-25T04:44:38.950Z,3.20
2018-09-25T04:49:47.959Z,2.13
2018-09-25T04:54:57.171Z,1.10
2018-09-25T05:00:06.443Z,1.07
2018-09-25T05:05:15.696Z,1.10
2018-09-25T05:10:24.808Z,1.27
2018-09-25T05:15:33.827Z,1.30
2018-09-25T05:20:43.010Z,1.57
2018-09-25T05:25:52.107Z,1.70
2018-09-25T05:31:01.171Z,1.57
2018-09-25T05:36:10.335Z,1.33
2018-09-25T05:41:19.627Z,1.20
2018-09-25T05:46:28.603Z,2.00
2018-09-25T05:51:37.718Z,1.87
2018-09-25T05:56:46.932Z,1.40
2018-09-25T06:01:56.268Z,1.83
2018-09-25T06:07:05.395Z,1.47
2018-09-25T06:12:14.423Z,1.57
2018-09-25T06:17:23.443Z,1.67
2018-09-25T06:22:32.590Z,1.97
2018-09-25T06:27:41.872Z,1.50
2018-09-25T06:32:51.207Z,1.70
2018-09-25T06:38:00.578Z,1.90
2018-09-25T06:43:09.860Z,1.30
2018-09-25T06:48:19.151Z,1.20
2018-09-25T06:53:28.504Z,1.60
2018-09-25T06:58:37.767Z,1.50
2018-09-25T07:03:46.899Z,1.80
2018-09-25T07:08:56.040Z,2.20
2018-09-25T07:14:05.295Z,1.90
2018-09-25T07:19:14.507Z,1.80
2018-09-25T07:24:23.673Z,2.20
2018-09-25T07:29:32.959Z,1.23
2018-09-25T07:34:42.190Z,1.37
2018-09-25T07:39:51.275Z,1.80
2018-09-25T07:45:00.235Z,1.03
2018-09-25T07:50:09.200Z,1.50
2018-09-25T07:55:18.378Z,1.73
2018-09-25T08:00:27.648Z,1.27
2018-09-25T08:05:37.091Z,1.50
2018-09-25T08:10:46.192Z,1.57
2018-09-25T08:15:55.275Z,1.80
2018-09-25T08:21:04.372Z,1.20
2018-09-25T08:26:13.380Z,1.70
2018-09-25T08:31:22.511Z,1.93
2018-09-25T08:36:31.624Z,1.60
2018-09-25T08:41:40.760Z,1.23
2018-09-25T08:46:49.946Z,1.20
2018-09-25T08:51:59.240Z,1.00
2018-09-25T08:57:08.373Z,1.50
2018-09-25T09:02:17.668Z,1.47
2018-09-25T09:07:26.825Z,1.30
2018-09-25T09:12:36.132Z,1.23
2018-09-25T09:17:45.167Z,1.00
2018-09-25T09:22:54.299Z,1.10
2018-09-25T09:28:03.431Z,1.07
2018-09-25T09:33:12.728Z,1.60
2018-09-25T09:38:21.863Z,2.10
2018-09-25T09:43:30.896Z,1.70
2018-09-25T09:48:40.155Z,1.20
2018-09-25T09:53:49.167Z,1.33
2018-09-25T09:58:58.439Z,1.20
2018-09-25T10:04:07.420Z,1.50
2018-09-25T10:09:16.624Z,1.20
2018-09-25T10:14:25.736Z,1.30
2018-09-25T10:19:34.876Z,1.30
2018-09-25T10:24:44.211Z,1.20
2018-09-25T10:29:53.300Z,1.00
2018-09-25T10:35:02.472Z,1.33
2018-09-25T10:40:11.472Z,1.30
2018-09-25T10:45:20.709Z,1.00
2018-09-25T10:50:29.895Z,1.10
2018-09-25T10:55:38.950Z,1.33
2018-09-25T11:00:48.273Z,1.00
2018-09-25T11:05:57.326Z,1.30
2018-09-25T11:11:06.488Z,0.90
2018-09-25T11:16:15.527Z,1.07
2018-09-25T11:21:24.583Z,0.83
2018-09-25T11:26:33.873Z,0.83
2018-09-25T11:31:43.007Z,0.87
2018-09-25T11:36:52.148Z,1.10
2018-09-25T11:42:01.285Z,1.40
2018-09-25T11:47:10.601Z,1.20
2018-09-25T11:52:19.551Z,1.37
2018-09-25T11:57:28.743Z,0.93
2018-09-25T12:02:37.876Z,0.90
2018-09-25T12:07:47.175Z,1.00
2018-09-25T12:12:56.328Z,1.17
2018-09-25T12:18:05.707Z,1.10
2018-09-25T12:23:14.860Z,0.93
2018-09-25T12:28:24.209Z,1.73
2018-09-25T12:33:33.422Z,1.00
2018-09-25T12:38:42.547Z,0.97
2018-09-25T12:43:51.764Z,1.40
2018-09-25T12:49:01.075Z,0.80
2018-09-25T12:54:10.294Z,0.93
2018-09-25T12:59:19.351Z,0.93
2018-09-25T13:04:28.620Z,1.33
2018-09-25T13:09:37.751Z,1.10
2018-09-25T13:14:47.038Z,1.63
2018-09-25T13:19:56.400Z,1.40
2018-09-25T13:25:05.740Z,1.13
2018-09-25T13:30:14.831Z,0.93
2018-09-25T13:35:24.039Z,1.10
2018-09-25T13:40:33.223Z,1.23
2018-09-25T13:45:42.360Z,1.00
2018-09-25T13:50:51.642Z,1.10
2018-09-25T13:56:00.969Z,0.90
2018-09-25T14:01:10.375Z,0.83
2018-09-25T14:06:19.547Z,0.80
2018-09-25T14:11:28.612Z,0.70
2018-09-25T14:16:37.647Z,1.00
2018-09-25T14:21:46.863Z,1.00
2018-09-25T14:26:56.143Z,0.90
2018-09-25T14:32:05.626Z,0.80
2018-09-25T14:37:14.718Z,1.00
2018-09-25T14:42:23.828Z,0.90
2018-09-25T14:47:33.133Z,0.80
2018-09-25T14:52:42.200Z,1.00
2018-09-25T14:57:51.443Z,0.63
2018-09-25T15:03:00.500Z,1.00
2018-09-25T15:08:09.758Z,0.87
2018-09-25T15:13:18.848Z,1.07
2018-09-25T15:18:28.112Z,0.90
2018-09-25T15:23:37.099Z,0.80
2018-09-25T15:28:46.155Z,1.23
2018-09-25T15:33:55.350Z,0.90
2018-09-25T15:39:04.504Z,0.70
2018-09-25T15:44:13.515Z,1.20
2018-09-25T15:49:22.887Z,1.00
2018-09-25T15:54:31.991Z,0.70
2018-09-25T15:59:41.054Z,0.70
2018-09-25T16:04:50.115Z,0.83
2018-09-25T16:09:59.270Z,1.07
2018-09-25T16:15:08.407Z,1.00
2018-09-25T16:20:17.699Z,0.80
2018-09-25T16:25:26.991Z,1.30
2018-09-25T16:30:36.396Z,0.80
2018-09-25T16:35:45.688Z,0.80
2018-09-25T16:40:54.743Z,0.90
2018-09-25T16:46:03.883Z,0.70
2018-09-25T16:51:12.999Z,0.93
2018-09-25T16:56:22.179Z,1.10
2018-09-25T17:01:31.652Z,1.10
2018-09-25T17:06:40.751Z,1.20
2018-09-25T17:11:50.107Z,1.00
2018-09-25T17:16:59.355Z,1.33
2018-09-25T17:22:08.687Z,2.10
2018-09-25T17:27:17.922Z,2.43
2018-09-25T17:32:27.207Z,1.60
2018-09-25T17:37:36.343Z,1.90
2018-09-25T17:42:45.603Z,1.50
2018-09-25T17:47:54.768Z,1.63
2018-09-25T17:53:04.009Z,1.90
2018-09-25T17:58:13.358Z,2.90
2018-09-25T18:03:22.627Z,3.17
2018-09-25T18:08:31.763Z,2.87
2018-09-25T18:13:41.096Z,2.93
2018-09-25T18:18:50.579Z,1.83
2018-09-25T18:23:59.969Z,2.53
2018-09-25T18:29:09.158Z,2.80
2018-09-25T18:34:18.439Z,2.40
2018-09-25T18:39:27.857Z,2.80
2018-09-25T18:44:37.119Z,2.90
2018-09-25T18:49:46.371Z,3.60
2018-09-25T18:54:55.587Z,3.93
2018-09-25T19:00:04.679Z,3.50
2018-09-25T19:05:13.779Z,3.50
2018-09-25T19:10:22.944Z,2.60
2018-09-25T19:15:32.050Z,3.60
2018-09-25T19:20:41.056Z,6.90
2018-09-25T19:25:50.408Z,4.87
2018-09-25T19:30:59.488Z,7.00
2018-09-25T19:36:08.660Z,5.70
2018-09-25T19:41:17.792Z,5.63
2018-09-25T19:46:27.205Z,7.83
2018-09-25T19:51:36.365Z,5.60
2018-09-25T19:56:45.603Z,4.83
2018-09-25T20:01:54.863Z,5.60
2018-09-25T20:07:04.117Z,4.80
2018-09-25T20:12:13.331Z,5.20
2018-09-25T20:17:22.576Z,4.30
2018-09-25T20:22:31.855Z,4.03
2018-09-25T20:27:40.844Z,2.83
2018-09-25T20:32:50.000Z,3.27
2018-09-25T20:37:59.020Z,2.80
2018-09-25T20:43:08.070Z,2.27
2018-09-25T20:48:17.336Z,2.60
2018-09-25T20:53:26.447Z,3.13
2018-09-25T20:58:35.563Z,2.63
2018-09-25T21:03:44.946Z,2.30
2018-09-25T21:08:54.084Z,2.47
2018-09-25T21:14:03.315Z,2.37
2018-09-25T21:19:12.576Z,2.40
2018-09-25T21:24:21.907Z,2.60
2018-09-25T21:29:31.077Z,4.07
2018-09-25T21:34:40.187Z,3.13
2018-09-25T21:39:49.371Z,2.63
2018-09-25T21:44:58.448Z,2.60
2018-09-25T21:50:07.428Z,2.13
2018-09-25T21:55:16.431Z,2.60
2018-09-25T22:00:25.543Z,2.00
2018-09-25T22:05:34.605Z,2.00
2018-09-25T22:10:43.939Z,1.90
2018-09-25T22:15:53.105Z,2.37
2018-09-25T22:21:02.163Z,2.50
2018-09-25T22:26:11.395Z,2.97
2018-09-25T22:31:20.534Z,2.80
2018-09-25T22:36:29.803Z,2.37
2018-09-25T22:41:39.184Z,2.37
2018-09-25T22:46:48.424Z,1.87
2018-09-25T22:51:57.678Z,2.00
2018-09-25T22:57:06.914Z,1.67
2018-09-25T23:02:16.151Z,1.80
2018-09-25T23:07:25.541Z,1.93
2018-09-25T23:12:34.819Z,1.90
2018-09-25T23:17:43.892Z,1.90
2018-09-25T23:22:53.171Z,1.80
2018-09-25T23:28:02.255Z,2.07
2018-09-25T23:33:11.272Z,2.10
2018-09-25T23:38:20.483Z,2.03
2018-09-25T23:43:29.678Z,1.83
2018-09-25T23:49:36.795Z,2.13
2018-09-25T23:54:47.199Z,2.00
2018-09-25T23:59:57.887Z,1.93
